createdAt,value
2022-12-01T00:03:36.187Z,102815.63
2022-12-01T00:13:22.562Z,102825.56
2022-12-01T00:17:48.900Z,102832.53
2022-12-01T00:22:00.823Z,102826.31
2022-12-01T00:26:56.759Z,102833.28
2022-12-01T00:31:29.951Z,102829.16
2022-12-01T00:36:27.222Z,102824.31
2022-12-01T00:40:57.597Z,102827.31
2022-12-01T00:45:27.108Z,102829.19
2022-12-01T00:50:45.964Z,102832.00
2022-12-01T01:01:29.771Z,102835.38
2022-12-01T01:18:15.937Z,102822.25
2022-12-01T01:23:04.673Z,102837.06
2022-12-01T02:24:16.594Z,102854.00
2022-12-01T02:48:47.938Z,102861.84
2022-12-01T02:54:17.482Z,102867.72
2022-12-01T03:04:21.367Z,102856.16
2022-12-01T03:09:28.069Z,102858.66
2022-12-01T03:14:30.037Z,102856.97
2022-12-01T03:25:01.555Z,102861.09
2022-12-01T03:30:06.126Z,102858.78
2022-12-01T03:34:52.761Z,102854.03
2022-12-01T03:49:32.343Z,102853.78
2022-12-01T03:59:49.978Z,102857.72
2022-12-01T04:03:51.793Z,102860.84
2022-12-01T04:13:22.873Z,102856.41
2022-12-01T04:17:25.408Z,102854.53
2022-12-01T04:21:26.942Z,102854.16
2022-12-01T04:25:28.361Z,102855.31
2022-12-01T04:29:29.937Z,102852.56
2022-12-01T04:33:31.346Z,102856.84
2022-12-01T04:37:32.833Z,102856.66
2022-12-01T04:41:34.284Z,102854.84
2022-12-01T04:45:35.698Z,102856.88
2022-12-01T04:49:37.407Z,102859.66
2022-12-01T04:53:39.030Z,102858.00
2022-12-01T04:57:41.404Z,102862.16
2022-12-01T05:01:43.008Z,102859.59
2022-12-01T05:05:44.595Z,102860.78
2022-12-01T05:09:46.125Z,102861.84
2022-12-01T05:13:48.817Z,102863.63
2022-12-01T05:17:50.206Z,102867.56
2022-12-01T05:21:52.371Z,102862.19
2022-12-01T05:25:54.368Z,102874.97
2022-12-01T05:29:55.882Z,102878.44
2022-12-01T05:33:57.434Z,102875.16
2022-12-01T05:38:01.919Z,102885.78
2022-12-01T05:42:06.079Z,102873.41
2022-12-01T05:46:07.859Z,102878.69
2022-12-01T05:50:10.292Z,102879.09
2022-12-01T05:54:11.819Z,102875.38
2022-12-01T05:58:13.344Z,102881.97
2022-12-01T06:02:15.115Z,102884.81
2022-12-01T06:06:16.812Z,102892.84
2022-12-01T06:10:18.318Z,102897.84
2022-12-01T06:14:19.739Z,102894.41
2022-12-01T06:18:21.159Z,102905.88
2022-12-01T06:22:22.573Z,102904.75
2022-12-01T06:26:23.984Z,102913.06
2022-12-01T06:30:26.200Z,102910.41
2022-12-01T06:34:27.618Z,102910.53
2022-12-01T06:38:34.060Z,102915.94
2022-12-01T06:42:35.577Z,102923.94
2022-12-01T06:46:37.057Z,102919.66
2022-12-01T06:50:38.490Z,102915.75
2022-12-01T06:54:39.933Z,102924.28
2022-12-01T06:58:41.675Z,102923.78
2022-12-01T07:02:43.556Z,102922.03
2022-12-01T07:06:45.039Z,102929.06
2022-12-01T07:10:46.510Z,102928.28
2022-12-01T07:14:47.973Z,102934.72
2022-12-01T07:18:49.998Z,102929.72
2022-12-01T07:22:51.412Z,102932.09
2022-12-01T07:26:52.847Z,102936.16
2022-12-01T07:30:54.410Z,102934.53
2022-12-01T07:34:55.847Z,102947.88
2022-12-01T07:38:57.343Z,102948.22
2022-12-01T07:42:58.724Z,102941.91
2022-12-01T07:47:00.193Z,102944.63
2022-12-01T07:51:01.844Z,102943.84
2022-12-01T07:55:03.351Z,102946.28
2022-12-01T07:59:04.827Z,102948.72
2022-12-01T08:03:06.333Z,102948.28
2022-12-01T08:07:07.821Z,102954.41
2022-12-01T08:11:15.458Z,102952.53
2022-12-01T08:15:17.053Z,102956.50
2022-12-01T08:19:18.520Z,102965.84
2022-12-01T08:23:19.960Z,102967.06
2022-12-01T08:27:21.413Z,102963.06
2022-12-01T08:31:35.560Z,102967.88
2022-12-01T08:35:37.112Z,102964.91
2022-12-01T08:39:38.631Z,102965.59
2022-12-01T08:43:57.313Z,102968.66
2022-12-01T08:48:00.119Z,102965.88
2022-12-01T08:52:01.545Z,102971.66
2022-12-01T08:56:06.792Z,102975.03
2022-12-01T09:00:08.857Z,102970.19
2022-12-01T09:04:10.272Z,102970.81
2022-12-01T09:08:30.499Z,102979.19
2022-12-01T09:12:31.888Z,102979.81
2022-12-01T09:16:33.520Z,102982.16
2022-12-01T09:20:35.182Z,102983.28
2022-12-01T09:24:36.760Z,102987.97
2022-12-01T09:28:38.361Z,102991.78
2022-12-01T09:32:39.903Z,102990.34
2022-12-01T09:36:41.439Z,102983.13
2022-12-01T09:40:43.388Z,102984.78
2022-12-01T09:44:49.022Z,102981.72
2022-12-01T09:48:53.086Z,102981.34
2022-12-01T09:52:58.717Z,102980.44
2022-12-01T09:57:00.288Z,102977.94
2022-12-01T10:01:01.955Z,102978.28
2022-12-01T10:05:14.370Z,102982.56
2022-12-01T10:09:53.021Z,102978.16
2022-12-01T10:13:54.497Z,102969.69
2022-12-01T10:18:13.913Z,102968.31
2022-12-01T10:22:27.141Z,102972.38
2022-12-01T10:26:50.004Z,102965.63
2022-12-01T10:30:53.022Z,102968.63
2022-12-01T10:34:54.429Z,102954.34
2022-12-01T10:38:56.122Z,102960.72
2022-12-01T10:42:57.576Z,102963.75
2022-12-01T10:46:59.830Z,102956.97
2022-12-01T10:51:16.074Z,102957.09
2022-12-01T10:55:23.453Z,102961.31
2022-12-01T10:59:31.224Z,102952.19
2022-12-01T11:03:35.727Z,102946.56
2022-12-01T11:07:47.125Z,102944.69
2022-12-01T11:11:58.666Z,102943.88
2022-12-01T11:16:02.623Z,102942.44
2022-12-01T11:20:27.043Z,102943.88
2022-12-01T11:24:33.556Z,102940.25
2022-12-01T11:28:37.005Z,102938.38
2022-12-01T11:32:39.902Z,102944.41
2022-12-01T11:36:48.503Z,102937.69
2022-12-01T11:40:57.969Z,102934.75
2022-12-01T11:45:25.029Z,102936.34
2022-12-01T11:49:30.032Z,102932.75
2022-12-01T11:53:37.638Z,102932.84
2022-12-01T11:57:42.636Z,102922.03
2022-12-01T12:02:15.197Z,102934.47
2022-12-01T12:07:02.188Z,102933.25
2022-12-01T12:11:19.003Z,102935.88
2022-12-01T12:15:31.615Z,102917.81
2022-12-01T12:20:00.375Z,102912.94
2022-12-01T12:24:24.109Z,102914.53
2022-12-01T12:28:56.936Z,102916.22
2022-12-01T12:33:23.514Z,102912.63
2022-12-01T12:37:51.165Z,102919.34
2022-12-01T12:41:55.152Z,102914.28
2022-12-01T12:46:22.296Z,102923.16
2022-12-01T12:50:44.702Z,102922.25
2022-12-01T12:54:58.888Z,102921.38
2022-12-01T12:59:10.538Z,102914.38
2022-12-01T13:03:30.664Z,102915.25
2022-12-01T13:07:42.465Z,102909.59
2022-12-01T13:11:57.300Z,102902.66
2022-12-01T13:16:02.434Z,102905.16
2022-12-01T13:20:05.865Z,102907.81
2022-12-01T13:24:10.569Z,102915.59
2022-12-01T13:28:26.181Z,102914.91
2022-12-01T13:32:35.615Z,102917.09
2022-12-01T13:36:48.782Z,102911.19
2022-12-01T13:41:18.613Z,102916.31
2022-12-01T13:45:20.609Z,102912.13
2022-12-01T13:49:45.825Z,102913.69
2022-12-01T13:54:02.881Z,102917.13
2022-12-01T13:58:04.295Z,102916.56
2022-12-01T14:02:19.647Z,102912.41
2022-12-01T14:06:28.376Z,102912.88
2022-12-01T14:10:33.185Z,102914.78
2022-12-01T14:14:37.419Z,102902.81
2022-12-01T14:41:48.640Z,102899.03
2022-12-01T14:46:07.428Z,102906.84
2022-12-01T14:50:32.555Z,102899.75
2022-12-01T14:54:46.617Z,102903.69
2022-12-01T14:58:59.958Z,102903.38
2022-12-01T15:03:12.918Z,102900.41
2022-12-01T15:07:21.013Z,102892.69
2022-12-01T15:11:25.506Z,102888.69
2022-12-01T15:15:27.298Z,102893.72
2022-12-01T15:19:30.073Z,102885.66
2022-12-01T15:23:31.661Z,102879.81
2022-12-01T15:27:33.333Z,102875.41
2022-12-01T15:31:35.207Z,102884.69
2022-12-01T15:35:36.722Z,102887.38
2022-12-01T15:39:48.591Z,102884.13
2022-12-01T15:43:58.079Z,102888.63
2022-12-01T15:47:59.553Z,102880.66
2022-12-01T15:52:10.476Z,102883.31
2022-12-01T15:56:12.450Z,102882.75
2022-12-01T16:00:19.940Z,102888.56
2022-12-01T16:04:25.318Z,102890.63
2022-12-01T16:08:28.060Z,102901.56
2022-12-01T16:12:34.711Z,102896.56
2022-12-01T16:16:43.816Z,102907.66
2022-12-01T16:20:45.568Z,102911.31
2022-12-01T16:24:53.519Z,102900.31
2022-12-01T16:28:56.223Z,102908.03
2022-12-01T16:33:03.843Z,102904.41
2022-12-01T16:37:05.254Z,102907.25
2022-12-01T16:41:18.089Z,102906.56
2022-12-01T16:45:20.287Z,102907.13
2022-12-01T16:49:22.296Z,102913.47
2022-12-01T16:53:23.794Z,102921.22
2022-12-01T16:57:25.264Z,102922.31
2022-12-01T17:01:26.881Z,102928.44
2022-12-01T17:05:28.435Z,102925.38
2022-12-01T17:09:30.114Z,102922.66
2022-12-01T17:13:31.554Z,102931.00
2022-12-01T17:17:33.056Z,102930.69
2022-12-01T17:21:34.537Z,102928.41
2022-12-01T17:25:40.640Z,102928.53
2022-12-01T17:29:46.034Z,102934.09
2022-12-01T17:33:47.920Z,102945.19
2022-12-01T17:37:49.408Z,102945.28
2022-12-01T17:41:50.825Z,102943.94
2022-12-01T17:45:52.303Z,102945.28
2022-12-01T17:49:54.024Z,102946.16
2022-12-01T17:53:55.429Z,102938.44
2022-12-01T17:57:58.696Z,102938.97
2022-12-01T18:02:00.205Z,102938.00
2022-12-01T18:06:02.079Z,102938.97
2022-12-01T18:10:03.997Z,102942.28
2022-12-01T18:14:05.477Z,102943.50
2022-12-01T18:18:06.958Z,102947.72
2022-12-01T18:22:08.368Z,102942.81
2022-12-01T18:26:15.762Z,102937.34
2022-12-01T18:30:17.754Z,102933.34
2022-12-01T18:34:19.394Z,102937.56
2022-12-01T18:38:23.203Z,102933.66
2022-12-01T18:42:24.709Z,102931.47
2022-12-01T18:46:26.248Z,102923.84
2022-12-01T18:50:27.691Z,102915.06
2022-12-01T18:54:29.127Z,102925.38
2022-12-01T18:58:32.209Z,102924.28
2022-12-01T19:02:33.819Z,102926.41
2022-12-01T19:06:37.168Z,102924.53
2022-12-01T19:10:38.593Z,102924.22
2022-12-01T21:10:29.463Z,102931.19
2022-12-01T21:14:44.390Z,102925.34
2022-12-01T21:18:55.359Z,102922.63
2022-12-01T21:23:26.929Z,102927.97
2022-12-01T21:27:28.524Z,102923.59
2022-12-01T21:31:31.721Z,102923.63
2022-12-01T21:35:33.160Z,102931.22
2022-12-01T21:39:34.582Z,102946.38
2022-12-01T21:43:38.510Z,102935.34
2022-12-01T21:47:40.192Z,102932.66
2022-12-01T21:51:41.691Z,102920.66
2022-12-01T21:55:45.336Z,102922.59
2022-12-01T21:59:51.287Z,102914.25
2022-12-01T22:04:02.650Z,102915.28
2022-12-01T22:08:26.068Z,102907.31
2022-12-01T22:12:34.691Z,102912.22
2022-12-01T22:16:40.946Z,102904.53
2022-12-01T22:20:42.535Z,102896.31
2022-12-01T22:24:51.784Z,102896.97
2022-12-01T22:29:02.923Z,102905.97
2022-12-01T22:33:14.927Z,102901.59
2022-12-01T22:37:24.849Z,102899.53
2022-12-01T22:41:28.540Z,102909.88
2022-12-01T22:45:30.016Z,102910.97
2022-12-01T22:49:31.526Z,102904.13
2022-12-01T22:53:33.022Z,102904.75
2022-12-01T22:57:36.490Z,102901.00
2022-12-01T23:01:46.719Z,102895.88
2022-12-01T23:05:56.176Z,102891.59
2022-12-01T23:10:04.929Z,102887.25
2022-12-01T23:14:13.478Z,102883.56
2022-12-01T23:18:23.998Z,102877.31
2022-12-01T23:22:25.419Z,102875.72
2022-12-01T23:26:26.831Z,102867.41
2022-12-01T23:30:28.399Z,102875.16
2022-12-01T23:34:30.054Z,102866.16
2022-12-01T23:38:37.375Z,102868.56
2022-12-01T23:42:38.812Z,102865.44
2022-12-01T23:46:40.892Z,102858.91
2022-12-01T23:50:42.497Z,102858.31
2022-12-01T23:54:43.944Z,102857.59
2022-12-01T23:58:45.452Z,102859.63
